Cantonment, FL

3:40 AM CST on January 26, 2015 (GMT -0600)
Whiting Fld NAS | Change Station
CLOSE
Current Station
Airport
Location: Whiting Fld NAS,
Elevation: 200 ft
Nearby Weather Stations
Active Advisory: Coastal Hazard Statement

Elev 200 ft 30.73 °N, 87.02 °W | Updated 44 minutes ago

Clear
Clear
45 °F
Feels Like 39 °F
N
12
Wind Variable Wind from WNW

Today
High -- | Low -- °F
--% Chance of Precip.
Yesterday
High -- | Low -- °F
Precip. -- in
6:43 AM 5:20 PM
Waxing Crescent, 41% visible
Pressure 29.89 in
Visibility 10.0 miles
Clouds Clear
Windchill 39 °F
Dew Point 37 °F
Humidity 74%
Rainfall 0.00 in
Snow Depth Not available.
UV 0 out of 12
Pollen 6.10 out of 12
Air Quality Not available.
Flu Activity Not available.
METAR KNSE 260856Z AUTO 30010KT 10SM CLR 07/03 A2993 RMK AO2 SLP121 6//// T00720028 53016 PNO $

More Conditions Fewer Conditions

Pressure 29.89 in
Visibility 10.0 miles
Clouds Clear
Windchill 39 °F
Dew Point 37 °F
Humidity 74%
Rainfall 0.00 in
Snow Depth Not available.
UV 0 out of 12
Pollen 6.10 out of 12
Air Quality Not available.
Flu Activity Not available.
METAR KNSE 260856Z AUTO 30010KT 10SM CLR 07/03 A2993 RMK AO2 SLP121 6//// T00720028 53016 PNO $

More Conditions Fewer Conditions

10-Day Weather Forecast

Almanac

Astronomy

Jan. 26, 2015 Rise Set
Actual Time
Civil Twilight
Nautical Twilight
Astronomical Twilight
Moon
Length of Visible Light
Length of Day
Tomorrow will be .
, % of the Moon is Illuminated

Today's Extremes

State Highs State Lows

Community

WunderPhotos

Upload Photos

1,790,163 photos uploaded!

WunderBlogs® & News

Nearby

Air Quality

  Air Quality AQ Index Pollutant
Not available.

Snow Depth

Station Depth Elevation

Earthquake Activity

City Distance Mag. Time & Date
Minimum magnitude displayed is 2.5.

Coastal Water Temperatures

Place Temperature

Nearby Weather Stations